Time;durP1;ratioP1;P1;durP2;ratioP2;P2;SDS_P1;SDS_P2;PMS_P1;PMS_P2;Temp;Humidity;BMP_temperature;BMP_pressure;BME280_temperature;BME280_humidity;BME280_pressure;Samples;Min_cycle;Max_cycle;Signal;HPM_P1;HPM_P2
2024/03/19 00:00:53;;;;;;;11.52;9.77;;;;;;;;;;5053022;28;20078;-58
2024/03/19 00:03:19;;;;;;;9.48;8.57;;;;;;;;;;5052950;28;20503;-59
2024/03/19 00:05:45;;;;;;;8.50;7.40;;;;;;;;;;5053768;28;20033;-59
2024/03/19 00:08:11;;;;;;;9.55;7.75;;;;;;;;;;5053505;28;20474;-59
2024/03/19 00:10:37;;;;;;;10.77;8.15;;;;;;;;;;5056034;28;20028;-59
2024/03/19 00:13:03;;;;;;;8.82;7.45;;;;;;;;;;5056453;28;20117;-59
2024/03/19 00:15:29;;;;;;;8.68;7.57;;;;;;;;;;5057247;28;20103;-59
2024/03/19 00:17:55;;;;;;;8.27;7.20;;;;;;;;;;5057119;28;20021;-59
2024/03/19 00:20:21;;;;;;;8.43;6.78;;;;;;;;;;5056733;28;20104;-59
2024/03/19 00:22:47;;;;;;;7.75;6.95;;;;;;;;;;5056883;28;20061;-59
2024/03/19 00:25:13;;;;;;;8.25;7.45;;;;;;;;;;5056583;28;20025;-59
2024/03/19 00:27:39;;;;;;;14.02;9.15;;;;;;;;;;5055885;28;20036;-59
2024/03/19 00:30:09;;;;;;;10.27;9.00;;;;;;;;;;5056206;28;20439;-59
2024/03/19 00:32:35;;;;;;;11.07;9.53;;;;;;;;;;5056151;28;20025;-59
2024/03/19 00:35:01;;;;;;;10.13;9.05;;;;;;;;;;5055963;28;20587;-59
2024/03/19 00:37:27;;;;;;;12.57;10.25;;;;;;;;;;5055969;28;20059;-59
2024/03/19 00:39:53;;;;;;;12.75;9.90;;;;;;;;;;5056535;28;20463;-58
2024/03/19 00:42:19;;;;;;;16.30;10.25;;;;;;;;;;5056459;28;20029;-58
2024/03/19 00:44:45;;;;;;;55.63;14.95;;;;;;;;;;5056389;28;20104;-58
2024/03/19 00:47:11;;;;;;;69.68;16.10;;;;;;;;;;5055583;28;20425;-59
2024/03/19 00:49:37;;;;;;;45.40;15.07;;;;;;;;;;5056359;28;20156;-59
2024/03/19 00:52:03;;;;;;;135.07;19.85;;;;;;;;;;5055405;28;20115;-59
2024/03/19 00:54:29;;;;;;;46.45;13.02;;;;;;;;;;5055716;28;20430;-59
2024/03/19 00:56:56;;;;;;;52.47;13.65;;;;;;;;;;5055718;28;20049;-59
2024/03/19 00:59:22;;;;;;;23.55;12.20;;;;;;;;;;5056217;28;20037;-59
2024/03/19 01:01:48;;;;;;;28.70;12.82;;;;;;;;;;5055949;28;20029;-59
2024/03/19 01:04:14;;;;;;;13.75;11.82;;;;;;;;;;5056391;28;20025;-59
2024/03/19 01:06:40;;;;;;;13.85;10.85;;;;;;;;;;5055571;28;20459;-59
2024/03/19 01:09:12;;;;;;;11.85;10.75;;;;;;;;;;5056308;28;20063;-58
2024/03/19 01:11:38;;;;;;;11.68;10.35;;;;;;;;;;5055953;28;20029;-59
2024/03/19 01:14:04;;;;;;;12.13;10.93;;;;;;;;;;5055412;28;20344;-58
2024/03/19 01:16:30;;;;;;;13.02;11.60;;;;;;;;;;5056045;28;20044;-58
2024/03/19 01:18:56;;;;;;;12.07;10.77;;;;;;;;;;5055602;28;20029;-59
2024/03/19 01:21:22;;;;;;;13.38;10.40;;;;;;;;;;5055676;28;20340;-58
2024/03/19 01:23:48;;;;;;;9.48;8.57;;;;;;;;;;5055190;28;20124;-59
2024/03/19 01:26:14;;;;;;;13.38;10.20;;;;;;;;;;5055338;28;20029;-59
2024/03/19 01:28:40;;;;;;;12.45;9.82;;;;;;;;;;5055414;28;20104;-57
2024/03/19 01:31:07;;;;;;;10.68;8.77;;;;;;;;;;5055342;28;20033;-59
2024/03/19 01:33:33;;;;;;;12.05;8.82;;;;;;;;;;5055424;28;20386;-58
2024/03/19 01:35:58;;;;;;;9.70;8.43;;;;;;;;;;5055225;28;20087;-58
2024/03/19 01:38:25;;;;;;;8.98;7.90;;;;;;;;;;5055701;28;20152;-59
2024/03/19 01:40:51;;;;;;;9.77;8.77;;;;;;;;;;5054788;28;20032;-59
2024/03/19 01:43:20;;;;;;;10.02;8.52;;;;;;;;;;5055281;28;20336;-59
2024/03/19 01:46:06;;;;;;;10.68;8.63;;;;;;;;;;5054739;28;20025;-58
2024/03/19 01:48:32;;;;;;;10.88;8.75;;;;;;;;;;5054537;28;20513;-58
2024/03/19 01:50:59;;;;;;;10.57;8.23;;;;;;;;;;5054636;28;20202;-58
2024/03/19 01:53:25;;;;;;;7.53;6.75;;;;;;;;;;5054442;28;20033;-59
2024/03/19 01:55:51;;;;;;;10.07;8.40;;;;;;;;;;5054525;28;20056;-59
2024/03/19 01:58:17;;;;;;;10.00;9.00;;;;;;;;;;5054227;28;20474;-59
2024/03/19 02:00:44;;;;;;;10.15;8.50;;;;;;;;;;5054063;28;20045;-57
2024/03/19 02:03:13;;;;;;;8.93;8.02;;;;;;;;;;5054921;28;20025;-58
2024/03/19 02:05:39;;;;;;;7.57;6.78;;;;;;;;;;5054805;28;20111;-58
2024/03/19 02:08:05;;;;;;;9.38;8.38;;;;;;;;;;5054643;28;20063;-58
2024/03/19 02:10:31;;;;;;;8.98;8.10;;;;;;;;;;5054158;28;20489;-57
2024/03/19 02:12:57;;;;;;;9.73;8.15;;;;;;;;;;5053905;28;20021;-59
2024/03/19 02:15:23;;;;;;;8.98;8.07;;;;;;;;;;5053912;28;20028;-59
2024/03/19 02:17:49;;;;;;;9.32;8.02;;;;;;;;;;5054080;28;20041;-57
2024/03/19 02:20:19;;;;;;;11.32;8.68;;;;;;;;;;5054393;28;20367;-60
2024/03/19 02:22:49;;;;;;;10.60;8.57;;;;;;;;;;5054596;28;20036;-59
2024/03/19 02:25:16;;;;;;;11.18;8.93;;;;;;;;;;5054649;28;20025;-58
2024/03/19 02:27:43;;;;;;;12.10;8.88;;;;;;;;;;5053984;28;20145;-58
2024/03/19 02:30:09;;;;;;;10.32;8.73;;;;;;;;;;5054849;28;20029;-58
2024/03/19 02:32:35;;;;;;;7.68;6.88;;;;;;;;;;5053408;28;20021;-58
2024/03/19 02:35:01;;;;;;;9.82;8.80;;;;;;;;;;5053782;28;20103;-58
2024/03/19 02:37:27;;;;;;;10.95;9.05;;;;;;;;;;5054588;28;20360;-59
2024/03/19 02:39:54;;;;;;;9.15;7.90;;;;;;;;;;5054376;28;20021;-59
2024/03/19 02:42:20;;;;;;;9.77;8.50;;;;;;;;;;5053695;28;20025;-58
2024/03/19 02:44:46;;;;;;;11.52;9.18;;;;;;;;;;5053551;28;20418;-58
2024/03/19 02:47:12;;;;;;;8.70;7.82;;;;;;;;;;5053536;28;20032;-58
2024/03/19 02:49:38;;;;;;;9.75;8.70;;;;;;;;;;5054028;28;20025;-59
2024/03/19 02:52:04;;;;;;;9.18;8.20;;;;;;;;;;5053676;28;20028;-58
2024/03/19 02:54:30;;;;;;;10.60;9.35;;;;;;;;;;5053945;28;20029;-59
2024/03/19 02:56:56;;;;;;;10.18;8.25;;;;;;;;;;5053102;28;20063;-57
2024/03/19 02:59:24;;;;;;;9.57;7.78;;;;;;;;;;5053508;28;20076;-58
2024/03/19 03:01:50;;;;;;;11.43;7.88;;;;;;;;;;5054317;28;20471;-58
2024/03/19 03:04:16;;;;;;;8.13;7.25;;;;;;;;;;5053218;28;20029;-57
2024/03/19 03:06:42;;;;;;;10.20;7.82;;;;;;;;;;5054005;28;20029;-59
2024/03/19 03:09:09;;;;;;;9.90;7.25;;;;;;;;;;5054062;28;20031;-58
2024/03/19 03:11:35;;;;;;;8.02;7.22;;;;;;;;;;5053452;28;20029;-58
2024/03/19 03:14:01;;;;;;;7.07;6.38;;;;;;;;;;5053454;28;20120;-58
2024/03/19 03:16:27;;;;;;;6.30;5.72;;;;;;;;;;5053406;28;20120;-58
2024/03/19 03:18:53;;;;;;;6.18;5.57;;;;;;;;;;5053399;28;20063;-59
2024/03/19 03:21:19;;;;;;;7.30;6.63;;;;;;;;;;5053447;28;20040;-58
2024/03/19 03:23:45;;;;;;;7.68;6.03;;;;;;;;;;5053316;28;20107;-58
2024/03/19 03:26:11;;;;;;;8.35;6.35;;;;;;;;;;5053348;28;20028;-59
2024/03/19 03:28:37;;;;;;;6.97;5.85;;;;;;;;;;5053889;28;20079;-58
2024/03/19 03:31:03;;;;;;;8.27;7.35;;;;;;;;;;5053304;28;20521;-58
2024/03/19 03:33:30;;;;;;;8.75;7.25;;;;;;;;;;5052969;28;20115;-59
2024/03/19 03:35:56;;;;;;;11.48;7.18;;;;;;;;;;5053090;28;20044;-58
2024/03/19 03:38:22;;;;;;;8.45;7.45;;;;;;;;;;5053736;28;20025;-59
2024/03/19 03:40:48;;;;;;;10.27;7.85;;;;;;;;;;5053213;28;20036;-58
2024/03/19 03:43:14;;;;;;;7.80;6.78;;;;;;;;;;5053449;28;20059;-58
2024/03/19 03:45:40;;;;;;;8.98;7.00;;;;;;;;;;5056632;28;20032;-58
2024/03/19 03:48:07;;;;;;;11.45;6.75;;;;;;;;;;5057298;28;20040;-58
2024/03/19 03:50:33;;;;;;;11.50;7.35;;;;;;;;;;5057629;28;20036;-58
2024/03/19 03:52:59;;;;;;;6.57;5.43;;;;;;;;;;5057575;28;20395;-58
2024/03/19 03:55:25;;;;;;;7.97;6.97;;;;;;;;;;5056927;28;20110;-58
2024/03/19 03:57:52;;;;;;;9.63;7.25;;;;;;;;;;5057774;28;20103;-58
2024/03/19 04:00:18;;;;;;;8.63;7.57;;;;;;;;;;5056745;28;20025;-58
2024/03/19 04:02:45;;;;;;;7.35;6.63;;;;;;;;;;5056724;28;20025;-58
2024/03/19 04:05:12;;;;;;;8.45;7.20;;;;;;;;;;5056671;28;20383;-58
2024/03/19 04:07:41;;;;;;;9.55;7.78;;;;;;;;;;5056320;28;20387;-58
2024/03/19 04:10:08;;;;;;;8.38;6.63;;;;;;;;;;5056711;28;20021;-58
2024/03/19 04:12:35;;;;;;;7.88;6.80;;;;;;;;;;5057032;28;20115;-58
2024/03/19 04:15:01;;;;;;;7.30;6.28;;;;;;;;;;5056463;28;20466;-58
2024/03/19 04:17:28;;;;;;;9.02;7.60;;;;;;;;;;5056377;28;20033;-57
2024/03/19 04:19:53;;;;;;;7.13;6.13;;;;;;;;;;5056789;28;20040;-58
2024/03/19 04:22:19;;;;;;;6.85;6.22;;;;;;;;;;5056760;28;20025;-58
2024/03/19 04:24:47;;;;;;;7.75;6.75;;;;;;;;;;5055884;28;20108;-58
2024/03/19 04:27:13;;;;;;;6.88;6.15;;;;;;;;;;5056456;28;20040;-58
2024/03/19 04:29:39;;;;;;;6.45;5.85;;;;;;;;;;5056539;28;20033;-59
2024/03/19 04:32:07;;;;;;;7.43;6.30;;;;;;;;;;5056653;28;20461;-58
2024/03/19 04:34:33;;;;;;;11.75;6.22;;;;;;;;;;5056239;28;20033;-56
2024/03/19 04:36:58;;;;;;;7.25;6.38;;;;;;;;;;5055991;28;20033;-58
2024/03/19 04:39:24;;;;;;;7.72;6.60;;;;;;;;;;5056272;28;20032;-57
2024/03/19 04:41:50;;;;;;;6.72;6.15;;;;;;;;;;5056197;28;20032;-58
2024/03/19 04:44:16;;;;;;;6.60;5.85;;;;;;;;;;5055979;28;20459;-58
2024/03/19 04:46:42;;;;;;;7.45;6.72;;;;;;;;;;5056402;28;20029;-58
2024/03/19 04:49:08;;;;;;;7.32;6.03;;;;;;;;;;5056422;28;20028;-58
2024/03/19 04:51:34;;;;;;;6.28;5.53;;;;;;;;;;5055696;28;20086;-57
2024/03/19 04:54:00;;;;;;;7.65;6.85;;;;;;;;;;5056286;28;20039;-58
2024/03/19 04:56:26;;;;;;;6.80;6.07;;;;;;;;;;5055004;28;20045;-58
2024/03/19 04:58:52;;;;;;;12.85;6.38;;;;;;;;;;5055932;28;20025;-58
2024/03/19 05:01:18;;;;;;;6.75;6.05;;;;;;;;;;5055664;28;20146;-58
2024/03/19 05:03:45;;;;;;;6.65;5.95;;;;;;;;;;5055699;28;20025;-58
2024/03/19 05:06:11;;;;;;;8.45;6.45;;;;;;;;;;5055595;28;20040;-58
2024/03/19 05:08:38;;;;;;;6.95;6.25;;;;;;;;;;5055839;28;20083;-58
2024/03/19 05:11:04;;;;;;;7.55;6.78;;;;;;;;;;5055527;28;20032;-59
2024/03/19 05:13:30;;;;;;;10.45;6.85;;;;;;;;;;5055714;28;20025;-58
2024/03/19 05:15:56;;;;;;;11.10;7.25;;;;;;;;;;5055041;28;20486;-58
2024/03/19 05:18:22;;;;;;;7.88;6.22;;;;;;;;;;5055123;28;20113;-58
2024/03/19 05:20:48;;;;;;;6.15;5.55;;;;;;;;;;5055632;28;20083;-58
2024/03/19 05:23:14;;;;;;;8.63;6.43;;;;;;;;;;5055208;28;20025;-58
2024/03/19 05:25:40;;;;;;;7.32;5.75;;;;;;;;;;5055378;28;20029;-58
2024/03/19 05:28:06;;;;;;;7.53;6.38;;;;;;;;;;5055869;28;20095;-58
2024/03/19 05:30:32;;;;;;;9.15;5.93;;;;;;;;;;5055268;28;20463;-58
2024/03/19 05:32:58;;;;;;;9.32;6.70;;;;;;;;;;5055261;28;20124;-58
2024/03/19 05:35:25;;;;;;;7.18;6.45;;;;;;;;;;5054565;28;20029;-56
2024/03/19 05:37:52;;;;;;;9.05;7.25;;;;;;;;;;5055480;28;20028;-58
2024/03/19 05:40:18;;;;;;;7.10;5.93;;;;;;;;;;5055279;28;20078;-57
2024/03/19 05:42:44;;;;;;;7.22;5.65;;;;;;;;;;5054689;28;20442;-58
2024/03/19 05:45:10;;;;;;;9.80;6.40;;;;;;;;;;5054259;28;20033;-57
2024/03/19 05:47:36;;;;;;;6.95;6.25;;;;;;;;;;5054976;28;20028;-57
2024/03/19 05:50:03;;;;;;;20.33;7.72;;;;;;;;;;5055069;28;20301;-58
2024/03/19 05:52:29;;;;;;;60.88;11.02;;;;;;;;;;5054320;28;20386;-57
2024/03/19 05:54:55;;;;;;;29.10;7.75;;;;;;;;;;5054112;28;20023;-59
2024/03/19 05:57:21;;;;;;;40.63;7.65;;;;;;;;;;5054920;28;20084;-58
2024/03/19 05:59:47;;;;;;;21.00;6.20;;;;;;;;;;5054445;28;20025;-58
2024/03/19 06:02:13;;;;;;;38.13;6.18;;;;;;;;;;5054322;28;20021;-58
2024/03/19 06:04:38;;;;;;;9.73;5.35;;;;;;;;;;5054696;28;20048;-58
2024/03/19 06:07:05;;;;;;;58.67;8.07;;;;;;;;;;5053849;28;20033;-58
2024/03/19 06:09:31;;;;;;;15.77;5.97;;;;;;;;;;5054327;28;20021;-58
2024/03/19 06:11:57;;;;;;;9.30;5.15;;;;;;;;;;5054627;28;20028;-58
2024/03/19 06:14:23;;;;;;;7.40;5.53;;;;;;;;;;5054723;28;20063;-57
2024/03/19 06:16:49;;;;;;;30.92;5.88;;;;;;;;;;5054007;28;20044;-58
2024/03/19 06:19:16;;;;;;;38.22;6.82;;;;;;;;;;5054484;28;20025;-58
2024/03/19 06:21:43;;;;;;;42.78;5.82;;;;;;;;;;5054224;28;20414;-58
2024/03/19 06:24:09;;;;;;;36.63;5.80;;;;;;;;;;5054058;28;20055;-58
2024/03/19 06:26:41;;;;;;;32.47;6.53;;;;;;;;;;5054060;28;20087;-58
2024/03/19 06:29:07;;;;;;;74.25;9.00;;;;;;;;;;5054244;28;20035;-59
2024/03/19 06:31:33;;;;;;;15.57;5.20;;;;;;;;;;5053941;28;20104;-59
2024/03/19 06:33:59;;;;;;;32.05;6.95;;;;;;;;;;5054235;28;20087;-58
2024/03/19 06:36:25;;;;;;;11.50;5.90;;;;;;;;;;5053944;28;20033;-59
2024/03/19 06:38:51;;;;;;;6.75;5.25;;;;;;;;;;5053689;28;20087;-58
2024/03/19 06:41:20;;;;;;;6.40;5.25;;;;;;;;;;5054527;28;20033;-58
2024/03/19 06:43:46;;;;;;;6.32;5.53;;;;;;;;;;5053617;28;20456;-58
2024/03/19 06:46:12;;;;;;;5.85;5.22;;;;;;;;;;5053881;28;20028;-59
2024/03/19 06:48:45;;;;;;;7.68;6.10;;;;;;;;;;5054082;28;20036;-58
2024/03/19 06:51:11;;;;;;;6.80;5.97;;;;;;;;;;5054301;28;20067;-57
2024/03/19 06:53:38;;;;;;;6.80;6.13;;;;;;;;;;5054315;28;20020;-58
2024/03/19 06:56:08;;;;;;;6.78;6.07;;;;;;;;;;5053706;28;20029;-57
2024/03/19 06:58:34;;;;;;;6.90;6.15;;;;;;;;;;5054311;28;20459;-59
2024/03/19 07:01:01;;;;;;;7.65;6.85;;;;;;;;;;5053917;28;20036;-58
2024/03/19 07:03:27;;;;;;;8.13;6.95;;;;;;;;;;5053630;28;20510;-58
2024/03/19 07:05:54;;;;;;;7.45;6.10;;;;;;;;;;5054169;28;20068;-56
2024/03/19 07:08:20;;;;;;;8.25;7.40;;;;;;;;;;5054046;28;20043;-59
2024/03/19 07:10:47;;;;;;;8.35;7.53;;;;;;;;;;5052965;28;20025;-59
2024/03/19 07:13:14;;;;;;;8.68;7.88;;;;;;;;;;5053234;28;20372;-58
2024/03/19 07:15:40;;;;;;;8.40;7.60;;;;;;;;;;5053120;28;20111;-58
2024/03/19 07:18:08;;;;;;;8.30;7.00;;;;;;;;;;5054112;28;20119;-59
2024/03/19 07:20:34;;;;;;;8.07;7.22;;;;;;;;;;5058144;28;20075;-58
2024/03/19 07:23:00;;;;;;;7.03;6.25;;;;;;;;;;5057604;28;20029;-58
2024/03/19 07:25:26;;;;;;;8.48;7.35;;;;;;;;;;5057979;28;20029;-59
2024/03/19 07:27:52;;;;;;;7.20;6.47;;;;;;;;;;5057963;28;20447;-58
2024/03/19 07:30:18;;;;;;;7.65;6.95;;;;;;;;;;5058229;28;20028;-59
2024/03/19 07:32:44;;;;;;;7.93;7.13;;;;;;;;;;5058024;28;20021;-59
2024/03/19 07:35:11;;;;;;;8.25;7.03;;;;;;;;;;5057131;28;20036;-59
2024/03/19 07:37:38;;;;;;;9.07;7.45;;;;;;;;;;5057099;28;20037;-58
2024/03/19 07:40:05;;;;;;;8.30;7.47;;;;;;;;;;5057712;28;20055;-59
2024/03/19 07:42:31;;;;;;;9.02;8.13;;;;;;;;;;5057174;28;20025;-58
2024/03/19 07:44:57;;;;;;;9.23;8.30;;;;;;;;;;5057628;28;20037;-58
2024/03/19 07:47:23;;;;;;;9.27;8.38;;;;;;;;;;5057042;28;20029;-58
2024/03/19 07:49:49;;;;;;;8.25;7.38;;;;;;;;;;5057535;28;20107;-58
2024/03/19 07:52:15;;;;;;;8.55;7.00;;;;;;;;;;5057038;28;20068;-58
2024/03/19 07:54:41;;;;;;;8.80;7.03;;;;;;;;;;5057045;28;20075;-58
2024/03/19 07:57:07;;;;;;;7.15;6.32;;;;;;;;;;5056652;28;20056;-58
2024/03/19 07:59:33;;;;;;;7.63;6.60;;;;;;;;;;5056935;28;20367;-58
2024/03/19 08:01:59;;;;;;;6.65;5.95;;;;;;;;;;5056892;28;20025;-58
2024/03/19 08:04:25;;;;;;;5.57;5.07;;;;;;;;;;5056777;28;20029;-59
2024/03/19 08:06:52;;;;;;;5.82;5.22;;;;;;;;;;5056785;28;20463;-58
2024/03/19 08:09:18;;;;;;;7.70;5.05;;;;;;;;;;5056998;28;20033;-58
2024/03/19 08:11:44;;;;;;;5.45;4.45;;;;;;;;;;5056619;28;20036;-59
2024/03/19 08:14:10;;;;;;;5.47;4.65;;;;;;;;;;5056933;28;20025;-59
2024/03/19 08:16:37;;;;;;;5.38;4.80;;;;;;;;;;5056453;28;20037;-59
2024/03/19 08:19:03;;;;;;;5.78;4.72;;;;;;;;;;5057057;28;20036;-59
2024/03/19 08:21:29;;;;;;;6.22;5.60;;;;;;;;;;5056729;28;20370;-58
2024/03/19 08:23:55;;;;;;;7.18;6.05;;;;;;;;;;5056746;28;20033;-58
2024/03/19 08:26:21;;;;;;;6.50;4.97;;;;;;;;;;5056355;28;20021;-58
2024/03/19 08:28:47;;;;;;;6.30;5.25;;;;;;;;;;5056944;28;20491;-59
2024/03/19 08:31:13;;;;;;;5.07;4.15;;;;;;;;;;5056026;28;20048;-59
2024/03/19 08:33:39;;;;;;;7.57;5.10;;;;;;;;;;5056743;28;20036;-59
2024/03/19 08:36:06;;;;;;;4.25;3.85;;;;;;;;;;5056071;28;20025;-59
2024/03/19 08:38:32;;;;;;;5.20;4.50;;;;;;;;;;5056255;28;20378;-57
2024/03/19 08:41:01;;;;;;;4.97;4.47;;;;;;;;;;5056500;28;20508;-58
2024/03/19 08:43:28;;;;;;;8.07;4.90;;;;;;;;;;5055818;28;20017;-57
2024/03/19 08:45:54;;;;;;;5.95;4.68;;;;;;;;;;5055971;28;20024;-57
2024/03/19 08:48:23;;;;;;;4.55;4.00;;;;;;;;;;5056414;28;20029;-57
2024/03/19 08:50:49;;;;;;;5.00;4.07;;;;;;;;;;5055590;28;20138;-57
2024/03/19 08:53:15;;;;;;;5.25;4.43;;;;;;;;;;5056494;28;20043;-58
2024/03/19 08:55:42;;;;;;;4.63;3.58;;;;;;;;;;5055870;28;20021;-58
2024/03/19 08:58:08;;;;;;;5.25;4.35;;;;;;;;;;5056699;28;20060;-59
2024/03/19 09:00:34;;;;;;;5.00;4.13;;;;;;;;;;5055445;28;20410;-59
2024/03/19 09:03:02;;;;;;;3.50;3.20;;;;;;;;;;5055734;28;20482;-59
2024/03/19 09:05:28;;;;;;;4.47;3.38;;;;;;;;;;5055261;28;20028;-58
2024/03/19 09:07:54;;;;;;;3.30;2.88;;;;;;;;;;5055995;28;20029;-56
2024/03/19 09:10:20;;;;;;;3.78;3.10;;;;;;;;;;5055272;28;20024;-58
2024/03/19 09:12:46;;;;;;;5.00;2.92;;;;;;;;;;5055895;28;20056;-57
2024/03/19 09:15:12;;;;;;;5.38;3.30;;;;;;;;;;5056007;28;20025;-57
2024/03/19 09:17:39;;;;;;;2.75;2.30;;;;;;;;;;5055885;28;20083;-58
2024/03/19 09:20:05;;;;;;;3.83;2.50;;;;;;;;;;5056022;28;20059;-58
2024/03/19 09:22:32;;;;;;;3.72;2.40;;;;;;;;;;5055379;28;20095;-57
2024/03/19 09:24:59;;;;;;;3.70;2.35;;;;;;;;;;5056111;28;20025;-58
2024/03/19 09:27:25;;;;;;;3.35;2.45;;;;;;;;;;5054961;28;20068;-58
2024/03/19 09:29:51;;;;;;;4.82;2.58;;;;;;;;;;5055160;28;20071;-58
2024/03/19 09:32:17;;;;;;;4.93;2.42;;;;;;;;;;5055734;28;20063;-56
2024/03/19 09:34:43;;;;;;;3.72;2.28;;;;;;;;;;5055317;28;20463;-58
2024/03/19 09:37:09;;;;;;;3.75;2.63;;;;;;;;;;5054985;28;20041;-58
2024/03/19 09:39:35;;;;;;;4.30;2.63;;;;;;;;;;5054807;28;20470;-58
2024/03/19 09:42:01;;;;;;;3.55;2.50;;;;;;;;;;5054910;28;20029;-58
2024/03/19 09:44:27;;;;;;;3.05;2.05;;;;;;;;;;5054848;28;20112;-58
2024/03/19 09:46:55;;;;;;;3.45;2.63;;;;;;;;;;5054858;28;20029;-58
2024/03/19 09:49:22;;;;;;;2.70;2.00;;;;;;;;;;5055472;28;20409;-58
2024/03/19 09:51:49;;;;;;;3.72;2.90;;;;;;;;;;5054720;28;20067;-57
2024/03/19 09:54:15;;;;;;;3.28;2.55;;;;;;;;;;5055248;28;20036;-58
2024/03/19 09:56:42;;;;;;;3.67;2.60;;;;;;;;;;5054688;28;20049;-55
2024/03/19 09:59:15;;;;;;;4.35;3.28;;;;;;;;;;5054679;28;20029;-56
2024/03/19 10:01:43;;;;;;;3.78;2.80;;;;;;;;;;5055132;28;20459;-58
2024/03/19 10:04:13;;;;;;;3.90;3.15;;;;;;;;;;5054497;28;20068;-58
2024/03/19 10:06:39;;;;;;;5.57;2.60;;;;;;;;;;5054761;28;20485;-56
2024/03/19 10:09:06;;;;;;;3.63;2.80;;;;;;;;;;5055079;28;20029;-58
2024/03/19 10:11:33;;;;;;;3.20;2.60;;;;;;;;;;5054392;28;20033;-57
2024/03/19 10:13:59;;;;;;;3.67;2.75;;;;;;;;;;5054291;28;20029;-57
2024/03/19 10:16:25;;;;;;;5.22;3.10;;;;;;;;;;5053982;28;20029;-57
2024/03/19 10:18:51;;;;;;;3.35;2.53;;;;;;;;;;5055174;28;20355;-58
2024/03/19 10:21:18;;;;;;;4.65;3.50;;;;;;;;;;5054140;28;20170;-58
2024/03/19 10:23:44;;;;;;;4.65;3.70;;;;;;;;;;5054532;28;20411;-58
2024/03/19 10:26:11;;;;;;;5.68;3.67;;;;;;;;;;5054458;28;20036;-58
2024/03/19 10:28:37;;;;;;;4.18;3.17;;;;;;;;;;5054958;28;20035;-58
2024/03/19 10:31:04;;;;;;;3.83;3.45;;;;;;;;;;5053661;28;20035;-58
2024/03/19 10:33:31;;;;;;;4.60;2.53;;;;;;;;;;5053838;28;20025;-57
2024/03/19 10:35:59;;;;;;;4.53;3.20;;;;;;;;;;5053700;28;20387;-57
2024/03/19 10:38:26;;;;;;;4.82;3.42;;;;;;;;;;5054587;28;20029;-55
2024/03/19 10:40:54;;;;;;;2.92;2.35;;;;;;;;;;5053970;28;20021;-58
2024/03/19 10:43:20;;;;;;;5.80;3.22;;;;;;;;;;5053950;28;20024;-57
2024/03/19 10:45:47;;;;;;;3.42;2.33;;;;;;;;;;5053895;28;20053;-57
2024/03/19 10:48:15;;;;;;;3.47;2.58;;;;;;;;;;5054461;28;20032;-57
2024/03/19 10:50:41;;;;;;;3.33;2.35;;;;;;;;;;5054347;28;20036;-57
2024/03/19 10:53:13;;;;;;;2.95;2.20;;;;;;;;;;5053455;28;20079;-57
2024/03/19 10:55:40;;;;;;;2.90;1.90;;;;;;;;;;5054064;28;20138;-57
2024/03/19 10:58:10;;;;;;;3.20;2.50;;;;;;;;;;5053536;28;20045;-56
2024/03/19 11:00:40;;;;;;;2.83;2.22;;;;;;;;;;5053324;28;20036;-57
2024/03/19 11:03:06;;;;;;;2.75;2.05;;;;;;;;;;5053516;28;20356;-57
2024/03/19 11:05:32;;;;;;;3.38;2.20;;;;;;;;;;5053256;28;20029;-57
2024/03/19 11:07:59;;;;;;;2.58;1.92;;;;;;;;;;5054410;28;20040;-57
2024/03/19 11:10:32;;;;;;;2.95;2.08;;;;;;;;;;5054425;28;20024;-58
2024/03/19 11:12:59;;;;;;;3.10;2.00;;;;;;;;;;5053546;28;20407;-58
2024/03/19 11:15:25;;;;;;;2.90;2.25;;;;;;;;;;5053510;28;20113;-57
2024/03/19 11:17:51;;;;;;;3.42;1.98;;;;;;;;;;5053500;28;20037;-58
2024/03/19 11:20:17;;;;;;;3.53;2.45;;;;;;;;;;5053790;28;20025;-58
2024/03/19 11:22:46;;;;;;;2.70;1.70;;;;;;;;;;5053522;28;20344;-58
2024/03/19 11:25:13;;;;;;;2.63;2.13;;;;;;;;;;5053978;28;20029;-58
2024/03/19 11:27:40;;;;;;;3.08;1.95;;;;;;;;;;5054246;28;20029;-57
2024/03/19 11:30:06;;;;;;;2.70;1.60;;;;;;;;;;5053464;28;20020;-58
2024/03/19 11:32:35;;;;;;;2.70;1.65;;;;;;;;;;5053943;28;20021;-58
2024/03/19 11:35:04;;;;;;;2.33;1.63;;;;;;;;;;5053251;28;20036;-58
2024/03/19 11:37:30;;;;;;;2.53;1.80;;;;;;;;;;5054047;28;20037;-58
2024/03/19 11:39:57;;;;;;;3.03;1.88;;;;;;;;;;5053689;28;20029;-58
2024/03/19 11:42:24;;;;;;;3.08;2.10;;;;;;;;;;5053302;28;20025;-58
2024/03/19 11:44:50;;;;;;;2.67;1.90;;;;;;;;;;5053286;28;20029;-58
2024/03/19 11:47:17;;;;;;;2.53;1.92;;;;;;;;;;5053015;28;20059;-58
2024/03/19 11:49:43;;;;;;;3.38;1.95;;;;;;;;;;5054064;28;20021;-58
2024/03/19 11:52:11;;;;;;;7.63;2.28;;;;;;;;;;5053211;28;20355;-58
2024/03/19 11:54:41;;;;;;;3.20;2.47;;;;;;;;;;5053246;28;20028;-58
2024/03/19 11:57:07;;;;;;;;;;;;;;;;;;5053623;28;20464;-58
2024/03/19 11:59:33;;;;;;;3.00;1.48;;;;;;;;;;5053268;28;19905;-58
2024/03/19 12:01:59;;;;;;;2.42;1.83;;;;;;;;;;5053418;28;20036;-58
2024/03/19 12:04:32;;;;;;;2.35;1.52;;;;;;;;;;5053051;28;20116;-58
2024/03/19 12:06:58;;;;;;;4.03;1.77;;;;;;;;;;5057504;28;20036;-57
2024/03/19 12:09:27;;;;;;;2.72;1.58;;;;;;;;;;5056673;28;20025;-58
2024/03/19 12:11:53;;;;;;;2.25;1.50;;;;;;;;;;5056633;28;20024;-58
2024/03/19 12:14:26;;;;;;;2.10;1.73;;;;;;;;;;5056671;28;20086;-57
2024/03/19 12:16:53;;;;;;;2.97;1.98;;;;;;;;;;5057104;28;20029;-58
2024/03/19 12:19:20;;;;;;;5.57;2.15;;;;;;;;;;5057083;28;20029;-58
2024/03/19 12:21:46;;;;;;;5.43;1.90;;;;;;;;;;5056575;28;20411;-58
2024/03/19 12:24:13;;;;;;;2.78;1.80;;;;;;;;;;5056521;28;20017;-59
2024/03/19 12:26:43;;;;;;;3.70;2.10;;;;;;;;;;5056213;28;20052;-58
2024/03/19 12:29:10;;;;;;;2.53;1.73;;;;;;;;;;5057034;28;20033;-58
2024/03/19 12:31:37;;;;;;;2.85;1.73;;;;;;;;;;5056239;28;20017;-58
2024/03/19 12:36:48;;;;;;;2.55;1.73;;;;;;;;;;5056434;28;20094;-58
2024/03/19 12:39:14;;;;;;;2.92;1.50;;;;;;;;;;5056863;28;20033;-58
2024/03/19 12:41:40;;;;;;;3.20;1.40;;;;;;;;;;5055824;28;20100;-58
2024/03/19 12:44:06;;;;;;;2.50;1.60;;;;;;;;;;5055925;28;20475;-57
2024/03/19 12:46:32;;;;;;;4.80;1.70;;;;;;;;;;5056554;28;20033;-58
2024/03/19 12:48:58;;;;;;;2.72;1.35;;;;;;;;;;5056329;28;20112;-58
2024/03/19 12:51:24;;;;;;;2.65;1.75;;;;;;;;;;5055628;28;20539;-59
2024/03/19 12:53:52;;;;;;;3.15;2.17;;;;;;;;;;5056718;28;20439;-59
2024/03/19 12:56:18;;;;;;;3.25;2.15;;;;;;;;;;5055672;28;20102;-58
2024/03/19 12:58:44;;;;;;;3.22;1.55;;;;;;;;;;5055935;28;20100;-58
2024/03/19 13:01:12;;;;;;;2.50;1.63;;;;;;;;;;5055839;28;20032;-58
2024/03/19 13:03:41;;;;;;;3.97;1.67;;;;;;;;;;5055738;28;20043;-58
2024/03/19 13:06:07;;;;;;;2.75;1.85;;;;;;;;;;5056162;28;20023;-58
2024/03/19 13:08:33;;;;;;;3.22;1.58;;;;;;;;;;5056149;28;20432;-59
2024/03/19 13:10:59;;;;;;;2.78;2.13;;;;;;;;;;5055321;28;20124;-59
2024/03/19 13:13:25;;;;;;;3.78;2.35;;;;;;;;;;5055150;28;20112;-59
2024/03/19 13:15:51;;;;;;;4.45;2.08;;;;;;;;;;5055732;28;20124;-59
2024/03/19 13:18:17;;;;;;;2.50;1.73;;;;;;;;;;5055962;28;20359;-59
2024/03/19 13:20:43;;;;;;;3.83;1.98;;;;;;;;;;5055919;28;20090;-58
2024/03/19 13:23:09;;;;;;;2.90;2.13;;;;;;;;;;5055787;28;20071;-58
2024/03/19 13:25:36;;;;;;;2.65;1.40;;;;;;;;;;5055293;28;20021;-58
2024/03/19 13:28:02;;;;;;;3.75;2.20;;;;;;;;;;5055638;28;20024;-58
2024/03/19 13:30:29;;;;;;;3.30;2.08;;;;;;;;;;5055085;28;20037;-58
2024/03/19 13:32:58;;;;;;;2.80;1.60;;;;;;;;;;5055238;28;20375;-58
2024/03/19 13:35:24;;;;;;;3.63;2.13;;;;;;;;;;5055108;28;20037;-59
2024/03/19 13:37:50;;;;;;;2.80;1.90;;;;;;;;;;5054733;28;20387;-58
2024/03/19 13:40:16;;;;;;;4.15;2.03;;;;;;;;;;5055354;28;20021;-59
2024/03/19 13:42:42;;;;;;;2.60;1.77;;;;;;;;;;5054923;28;20029;-60
2024/03/19 13:45:09;;;;;;;3.60;2.53;;;;;;;;;;5054660;28;20035;-58
2024/03/19 13:47:35;;;;;;;2.97;2.15;;;;;;;;;;5054919;28;20029;-59
2024/03/19 13:50:01;;;;;;;2.88;1.98;;;;;;;;;;5054785;28;20109;-60
2024/03/19 13:52:27;;;;;;;3.67;1.85;;;;;;;;;;5054840;28;20067;-58
2024/03/19 13:54:53;;;;;;;2.10;1.63;;;;;;;;;;5054552;28;20025;-58
2024/03/19 13:57:20;;;;;;;3.67;2.10;;;;;;;;;;5054922;28;20048;-59
2024/03/19 13:59:46;;;;;;;3.25;2.20;;;;;;;;;;5054734;28;20049;-59
2024/03/19 14:02:14;;;;;;;3.20;2.25;;;;;;;;;;5055145;28;20032;-58
2024/03/19 14:04:40;;;;;;;2.70;1.90;;;;;;;;;;5055380;28;20029;-59
2024/03/19 14:07:06;;;;;;;3.20;2.20;;;;;;;;;;5054598;28;20021;-59
2024/03/19 14:09:33;;;;;;;4.18;2.08;;;;;;;;;;5055378;28;20029;-59
2024/03/19 14:11:59;;;;;;;2.53;1.77;;;;;;;;;;5054251;28;20059;-58
2024/03/19 14:14:27;;;;;;;3.15;2.17;;;;;;;;;;5054929;28;20021;-59
2024/03/19 14:16:54;;;;;;;5.50;2.75;;;;;;;;;;5054249;28;20074;-58
2024/03/19 14:19:20;;;;;;;2.88;1.83;;;;;;;;;;5054640;28;20102;-58
2024/03/19 14:21:46;;;;;;;2.88;2.08;;;;;;;;;;5054880;28;20452;-59
2024/03/19 14:24:12;;;;;;;3.22;2.08;;;;;;;;;;5054272;28;20017;-59
2024/03/19 14:26:38;;;;;;;3.15;2.05;;;;;;;;;;5054763;28;20028;-59
2024/03/19 14:29:04;;;;;;;3.17;1.88;;;;;;;;;;5053567;28;20112;-57
2024/03/19 14:31:30;;;;;;;3.15;2.10;;;;;;;;;;5054202;28;20059;-58
2024/03/19 14:33:56;;;;;;;2.42;1.83;;;;;;;;;;5053673;28;20053;-58
2024/03/19 14:36:22;;;;;;;3.38;1.52;;;;;;;;;;5053678;28;20021;-58
2024/03/19 14:38:48;;;;;;;3.65;2.10;;;;;;;;;;5054750;28;20029;-58